Time;durP1;ratioP1;P1;durP2;ratioP2;P2;SDS_P1;SDS_P2;PMS_P1;PMS_P2;Temp;Humidity;BMP_temperature;BMP_pressure;BME280_temperature;BME280_humidity;BME280_pressure;Samples;Min_cycle;Max_cycle;Signal;HPM_P1;HPM_P2
2023/01/25 00:00:05;;;;;;;5.07;3.93;;;;;;;8.22;65.59;95700.84;5070190;28;20186;-48
2023/01/25 00:02:32;;;;;;;4.50;3.47;;;;;;;8.22;65.52;95698.31;5070259;28;20206;-46
2023/01/25 00:04:59;;;;;;;4.03;3.40;;;;;;;8.23;65.51;95701.66;5070350;28;20640;-45
2023/01/25 00:07:26;;;;;;;4.47;4.00;;;;;;;8.22;65.80;95703.41;5070469;28;20640;-47
2023/01/25 00:09:52;;;;;;;4.57;3.83;;;;;;;8.22;65.77;95705.13;5070537;28;20191;-46
2023/01/25 00:12:21;;;;;;;5.40;3.70;;;;;;;8.24;65.53;95698.19;5070704;28;20198;-46
2023/01/25 00:14:47;;;;;;;4.30;3.90;;;;;;;8.24;65.66;95698.19;5069752;28;20227;-47
2023/01/25 00:17:14;;;;;;;4.50;3.93;;;;;;;8.23;65.40;95697.38;5070297;28;20189;-47
2023/01/25 00:19:41;;;;;;;4.17;3.60;;;;;;;8.01;65.94;95661.47;5070275;28;20255;-46
2023/01/25 00:22:08;;;;;;;5.27;4.33;;;;;;;8.23;65.76;95701.66;5069962;28;20644;-47
2023/01/25 00:24:35;;;;;;;3.97;3.43;;;;;;;8.25;65.56;95698.13;5069846;28;20272;-46
2023/01/25 00:27:02;;;;;;;4.83;4.00;;;;;;;8.24;65.97;95695.66;5070137;28;20194;-46
2023/01/25 00:29:30;;;;;;;5.13;4.43;;;;;;;8.26;65.95;95697.19;5069761;28;20201;-46
2023/01/25 00:32:28;;;;;;;4.13;3.73;;;;;;;8.24;65.98;95701.56;5069517;28;20663;-48
2023/01/25 00:34:55;;;;;;;5.10;4.30;;;;;;;8.17;65.84;95686.78;5069638;28;20660;-48
2023/01/25 00:37:29;;;;;;;4.17;3.70;;;;;;;8.22;66.04;95694.94;5069990;28;20194;-48
2023/01/25 00:39:56;;;;;;;4.53;3.87;;;;;;;8.20;65.80;95700.16;5069450;28;20659;-48
2023/01/25 00:42:23;;;;;;;5.00;4.50;;;;;;;8.22;66.07;95700.84;5069963;28;20285;-47
2023/01/25 00:44:51;;;;;;;4.13;3.73;;;;;;;8.21;66.01;95699.22;5068838;28;20205;-46
2023/01/25 00:47:18;;;;;;;5.03;4.10;;;;;;;8.19;65.98;95698.50;5069676;28;20256;-47
2023/01/25 00:49:46;;;;;;;4.57;3.87;;;;;;;8.22;65.99;95702.59;5069154;28;20189;-47
2023/01/25 00:52:13;;;;;;;6.30;4.00;;;;;;;8.23;65.84;95705.03;5068966;28;20213;-46
2023/01/25 00:54:40;;;;;;;6.23;3.93;;;;;;;8.23;65.93;95702.47;5069022;28;20218;-47
2023/01/25 00:57:07;;;;;;;4.43;3.83;;;;;;;8.22;65.74;95695.75;5069152;28;20631;-46
2023/01/25 00:59:34;;;;;;;4.57;3.60;;;;;;;8.22;65.82;95702.59;5069159;28;20186;-47
2023/01/25 01:02:03;;;;;;;4.40;3.50;;;;;;;8.22;65.99;95710.22;5068819;28;20229;-46
2023/01/25 01:04:30;;;;;;;3.97;3.40;;;;;;;8.20;66.04;95697.59;5069137;28;20190;-47
2023/01/25 01:06:57;;;;;;;5.33;3.20;;;;;;;8.18;66.00;95704.50;5049031;28;20237;-47
2023/01/25 01:09:24;;;;;;;4.03;3.50;;;;;;;8.13;66.23;95693.00;5048977;28;20653;-46
2023/01/25 01:11:53;;;;;;;5.13;3.67;;;;;;;8.11;66.06;95699.91;5048517;28;20281;-46
2023/01/25 01:14:20;;;;;;;3.73;3.33;;;;;;;8.00;66.21;95670.03;5068455;28;20663;-45
2023/01/25 01:16:47;;;;;;;4.70;3.93;;;;;;;8.15;66.01;95704.69;5068839;28;20186;-46
2023/01/25 01:19:16;;;;;;;5.00;3.80;;;;;;;8.16;65.91;95710.59;5069274;28;20191;-47
2023/01/25 01:21:43;;;;;;;6.77;3.83;;;;;;;8.15;65.89;95698.78;5069105;28;20201;-48
2023/01/25 01:24:10;;;;;;;4.93;3.80;;;;;;;8.14;66.05;95692.88;5069113;28;20190;-46
2023/01/25 01:26:37;;;;;;;5.03;4.23;;;;;;;8.16;65.90;95693.63;5068952;28;20186;-46
2023/01/25 01:29:04;;;;;;;4.30;3.70;;;;;;;8.16;65.93;95692.78;5068596;28;20221;-49
2023/01/25 01:31:31;;;;;;;4.03;3.70;;;;;;;8.14;65.93;95685.22;5068984;28;20194;-46
2023/01/25 01:33:59;;;;;;;3.97;3.57;;;;;;;8.15;65.77;95683.50;5069019;28;20198;-46
2023/01/25 01:36:31;;;;;;;4.93;4.03;;;;;;;8.15;66.00;95683.50;5069141;28;20221;-46
2023/01/25 01:38:59;;;;;;;4.03;3.50;;;;;;;8.14;65.77;95682.69;5068815;28;20190;-46
2023/01/25 01:41:26;;;;;;;3.90;3.50;;;;;;;7.94;65.72;95652.56;5069431;28;20183;-47
2023/01/25 01:43:53;;;;;;;4.50;4.03;;;;;;;8.13;65.88;95680.25;5068232;28;20695;-46
2023/01/25 01:46:33;;;;;;;4.23;3.83;;;;;;;8.09;65.94;95687.25;5068811;28;20620;-47
2023/01/25 01:49:02;;;;;;;5.23;3.40;;;;;;;7.84;65.97;95643.91;5068801;28;20190;-48
2023/01/25 01:51:42;;;;;;;5.13;3.93;;;;;;;8.04;65.86;95672.28;5068931;28;20669;-46
2023/01/25 01:54:13;;;;;;;3.30;3.00;;;;;;;8.02;65.96;95675.81;5068499;28;20556;-47
2023/01/25 01:56:45;;;;;;;4.10;3.37;;;;;;;8.04;65.93;95671.47;5068713;28;20202;-47
2023/01/25 01:59:13;;;;;;;4.93;3.77;;;;;;;8.01;66.01;95676.75;5069030;28;20198;-47
2023/01/25 02:01:41;;;;;;;5.27;3.80;;;;;;;7.99;66.05;95681.13;5068632;28;20313;-48
2023/01/25 02:04:09;;;;;;;4.30;3.60;;;;;;;7.97;66.01;95680.41;5068414;28;20190;-48
2023/01/25 02:06:47;;;;;;;4.20;3.80;;;;;;;7.98;66.16;95677.75;5068534;28;20200;-47
2023/01/25 02:09:18;;;;;;;3.07;2.80;;;;;;;7.96;66.00;95664.31;5068277;28;20210;-47
2023/01/25 02:11:46;;;;;;;4.93;3.47;;;;;;;8.00;66.08;95675.13;5068459;28;20186;-48
2023/01/25 02:14:15;;;;;;;5.37;3.60;;;;;;;8.01;66.02;95677.56;5068164;28;20198;-46
2023/01/25 02:16:43;;;;;;;4.23;3.70;;;;;;;8.01;65.96;95674.19;5068498;28;20222;-46
2023/01/25 02:19:17;;;;;;;4.20;3.27;;;;;;;8.02;65.88;95675.81;5068395;28;20198;-47
2023/01/25 02:21:48;;;;;;;4.60;3.23;;;;;;;8.04;65.94;95676.56;5068530;28;20238;-47
2023/01/25 02:24:22;;;;;;;3.80;3.40;;;;;;;8.04;66.01;95681.66;5069627;28;20190;-48
2023/01/25 02:26:51;;;;;;;4.43;3.77;;;;;;;8.05;65.96;95676.44;5052438;28;20275;-48
2023/01/25 02:29:21;;;;;;;4.17;3.20;;;;;;;8.07;65.90;95678.88;5052199;28;20201;-48
2023/01/25 02:31:51;;;;;;;3.77;3.43;;;;;;;8.08;65.88;95678.00;5052281;28;20206;-47
2023/01/25 02:34:18;;;;;;;4.13;3.23;;;;;;;8.09;65.87;95671.97;5052243;28;20686;-47
2023/01/25 02:36:45;;;;;;;4.43;3.40;;;;;;;8.10;65.88;95677.88;5059288;28;20229;-48
2023/01/25 02:39:17;;;;;;;3.27;2.97;;;;;;;7.90;65.98;95640.94;5071387;28;20630;-47
2023/01/25 02:41:46;;;;;;;3.90;3.33;;;;;;;8.09;65.94;95669.44;5072261;28;20191;-47
2023/01/25 02:44:17;;;;;;;2.93;2.73;;;;;;;8.08;66.00;95669.53;5072145;28;20194;-52
2023/01/25 02:46:45;;;;;;;3.87;3.40;;;;;;;8.07;65.85;95661.06;5074832;28;20190;-48
2023/01/25 02:49:12;;;;;;;3.50;3.20;;;;;;;7.97;65.98;95650.66;5074911;28;20293;-46
2023/01/25 02:51:41;;;;;;;3.17;2.87;;;;;;;8.03;66.06;95663.00;5074401;28;20208;-48
2023/01/25 02:54:10;;;;;;;3.60;3.27;;;;;;;7.97;66.08;95654.94;5071883;28;20564;-48
2023/01/25 02:56:39;;;;;;;3.30;3.00;;;;;;;8.05;65.79;95670.53;5072387;28;20312;-49
2023/01/25 02:59:06;;;;;;;4.50;2.83;;;;;;;7.89;65.82;95641.88;5071821;28;20191;-47
2023/01/25 03:01:36;;;;;;;3.43;3.13;;;;;;;8.07;65.90;95668.69;5071467;28;20598;-46
2023/01/25 03:04:04;;;;;;;2.90;2.63;;;;;;;8.06;65.94;95669.63;5071662;28;20195;-46
2023/01/25 03:06:31;;;;;;;4.30;3.40;;;;;;;8.04;65.77;95668.91;5071773;28;20301;-46
2023/01/25 03:08:58;;;;;;;4.33;3.00;;;;;;;8.05;65.99;95668.81;5071368;28;20564;-47
2023/01/25 03:11:25;;;;;;;3.17;2.87;;;;;;;8.04;65.95;95667.19;5070476;28;20186;-46
2023/01/25 03:13:51;;;;;;;2.97;2.67;;;;;;;8.06;65.93;95672.16;5071222;28;20198;-46
2023/01/25 03:16:18;;;;;;;3.20;2.90;;;;;;;8.06;65.69;95672.16;5071271;28;20267;-46
2023/01/25 03:18:47;;;;;;;3.47;3.17;;;;;;;7.98;65.87;95651.47;5071489;28;20594;-49
2023/01/25 03:21:16;;;;;;;3.70;2.93;;;;;;;8.04;65.76;95669.72;5071008;28;20563;-49
2023/01/25 03:23:44;;;;;;;3.27;3.07;;;;;;;8.07;65.88;95666.16;5071377;28;20252;-46
2023/01/25 03:26:13;;;;;;;2.63;2.43;;;;;;;8.09;65.79;95668.63;5070901;28;20190;-47
2023/01/25 03:28:41;;;;;;;3.00;2.73;;;;;;;8.07;65.74;95671.25;5071426;28;20191;-47
2023/01/25 03:31:10;;;;;;;3.40;3.10;;;;;;;7.86;65.58;95632.72;5071378;28;20190;-48
2023/01/25 03:33:37;;;;;;;3.27;2.97;;;;;;;8.10;65.70;95665.16;5071203;28;20195;-47
2023/01/25 03:36:06;;;;;;;3.27;2.97;;;;;;;8.08;65.65;95670.34;5070624;28;20272;-48
2023/01/25 03:38:34;;;;;;;3.30;3.00;;;;;;;8.09;65.36;95673.72;5071348;28;20194;-48
2023/01/25 03:41:01;;;;;;;3.70;2.67;;;;;;;8.08;65.69;95667.00;5070973;28;20648;-47
2023/01/25 03:43:28;;;;;;;2.90;2.60;;;;;;;8.01;65.88;95662.28;5070902;28;20285;-48
2023/01/25 03:45:56;;;;;;;3.23;2.97;;;;;;;8.07;65.52;95667.88;5070827;28;20198;-48
2023/01/25 03:48:24;;;;;;;3.40;3.10;;;;;;;8.08;65.65;95669.53;5071377;28;20206;-48
2023/01/25 03:50:52;;;;;;;4.33;2.83;;;;;;;8.05;65.50;95661.16;5070302;28;20186;-47
2023/01/25 03:53:28;;;;;;;3.57;3.00;;;;;;;7.85;65.60;95625.16;5071036;28;20201;-46
2023/01/25 03:55:57;;;;;;;2.90;2.70;;;;;;;8.04;65.65;95651.91;5070306;28;20217;-46
2023/01/25 03:58:24;;;;;;;3.30;3.00;;;;;;;8.02;65.67;95656.25;5070722;28;20206;-47
2023/01/25 04:00:51;;;;;;;3.43;3.13;;;;;;;8.01;65.92;95654.63;5070975;28;20232;-45
2023/01/25 04:03:18;;;;;;;2.87;2.67;;;;;;;8.01;65.76;95646.19;5071944;28;20209;-48
2023/01/25 04:05:45;;;;;;;3.10;2.80;;;;;;;7.97;65.78;95640.47;5070688;28;20190;-48
2023/01/25 04:08:12;;;;;;;2.97;2.77;;;;;;;7.98;65.48;95647.19;5070626;28;20194;-46
2023/01/25 04:10:40;;;;;;;3.27;3.00;;;;;;;7.96;65.63;95651.56;5070388;28;20202;-50
2023/01/25 04:13:07;;;;;;;3.60;2.50;;;;;;;7.95;65.70;95651.69;5070057;28;20529;-48
2023/01/25 04:15:34;;;;;;;3.30;2.77;;;;;;;7.80;65.87;95631.34;5070624;28;20236;-48
2023/01/25 04:18:01;;;;;;;3.37;3.07;;;;;;;7.95;66.01;95644.03;5070165;28;20205;-48
2023/01/25 04:20:28;;;;;;;2.63;2.40;;;;;;;7.93;65.88;95643.31;5070694;28;20187;-48
2023/01/25 04:22:55;;;;;;;2.97;2.77;;;;;;;7.91;66.00;95645.16;5070183;28;20939;-48
2023/01/25 04:25:21;;;;;;;3.10;2.90;;;;;;;7.91;65.79;95642.59;5070340;28;20707;-47
2023/01/25 04:27:50;;;;;;;3.30;3.00;;;;;;;7.90;65.93;95641.78;5069683;28;20545;-47
2023/01/25 04:30:17;;;;;;;3.30;3.00;;;;;;;7.90;66.05;95648.59;5070234;28;20197;-49
2023/01/25 04:32:44;;;;;;;3.20;2.90;;;;;;;7.88;65.97;95653.78;5070095;28;20198;-47
2023/01/25 04:35:10;;;;;;;3.27;2.97;;;;;;;7.88;65.91;95650.44;5069805;28;20692;-46
2023/01/25 04:37:37;;;;;;;4.23;3.20;;;;;;;7.88;65.95;95658.06;5069629;28;20222;-48
2023/01/25 04:40:06;;;;;;;3.20;2.90;;;;;;;7.86;66.02;95662.41;5069973;28;20187;-46
2023/01/25 04:42:33;;;;;;;3.70;3.10;;;;;;;7.86;65.93;95667.50;5069504;28;20197;-47
2023/01/25 04:45:01;;;;;;;3.10;2.80;;;;;;;7.86;66.08;95657.34;5069993;28;20187;-46
2023/01/25 04:47:28;;;;;;;3.47;3.17;;;;;;;7.81;65.76;95662.72;5069145;28;20199;-48
2023/01/25 04:49:55;;;;;;;3.13;2.67;;;;;;;7.86;65.83;95662.41;5069492;28;20191;-46
2023/01/25 04:52:21;;;;;;;2.70;2.50;;;;;;;7.87;65.91;95656.44;5069597;28;20668;-47
2023/01/25 04:54:48;;;;;;;4.60;3.10;;;;;;;7.88;65.64;95655.53;5069736;28;20190;-48
2023/01/25 04:57:15;;;;;;;2.70;2.50;;;;;;;7.88;65.85;95663.97;5069616;28;20233;-48
2023/01/25 04:59:42;;;;;;;3.30;3.00;;;;;;;7.89;65.69;95665.59;5069850;28;20186;-47
2023/01/25 05:02:10;;;;;;;3.33;3.03;;;;;;;7.87;65.59;95653.91;5069938;28;20283;-45
2023/01/25 05:04:37;;;;;;;2.90;2.70;;;;;;;7.90;65.69;95656.22;5069757;28;20301;-46
2023/01/25 05:07:03;;;;;;;3.30;3.00;;;;;;;7.88;65.84;95658.06;5069871;28;20190;-47
2023/01/25 05:09:30;;;;;;;2.90;2.70;;;;;;;7.88;65.92;95658.88;5069120;28;20190;-48
2023/01/25 05:11:57;;;;;;;2.93;2.63;;;;;;;7.88;65.88;95653.78;5069358;28;20301;-47
2023/01/25 05:14:24;;;;;;;3.53;3.23;;;;;;;7.85;65.84;95653.16;5068831;28;20624;-48
2023/01/25 05:16:50;;;;;;;2.97;2.67;;;;;;;7.86;65.97;95659.88;5069478;28;20225;-47
2023/01/25 05:19:19;;;;;;;3.63;2.80;;;;;;;7.86;65.81;95652.25;5068943;28;20201;-47
2023/01/25 05:21:58;;;;;;;4.10;2.80;;;;;;;7.88;65.80;95643.59;5069186;28;20186;-46
2023/01/25 05:24:24;;;;;;;3.30;3.00;;;;;;;7.89;65.79;95649.50;5068547;28;20186;-45
2023/01/25 05:26:59;;;;;;;3.03;2.80;;;;;;;7.86;65.64;95642.06;5069186;28;20201;-47
2023/01/25 05:29:26;;;;;;;3.63;3.33;;;;;;;7.88;65.67;95656.34;5068143;28;20277;-46
2023/01/25 05:31:53;;;;;;;3.40;3.10;;;;;;;7.87;65.67;95651.34;5069136;28;20192;-47
2023/01/25 05:34:21;;;;;;;3.40;3.10;;;;;;;7.85;65.44;95646.34;5069141;28;20680;-46
2023/01/25 05:36:48;;;;;;;3.23;2.93;;;;;;;7.84;65.49;95652.34;5069605;28;20666;-48
2023/01/25 05:39:15;;;;;;;3.70;3.40;;;;;;;7.70;65.47;95634.59;5069305;28;20201;-47
2023/01/25 05:41:41;;;;;;;3.23;2.93;;;;;;;7.80;65.46;95653.44;5062079;28;20210;-47
2023/01/25 05:44:08;;;;;;;2.93;2.70;;;;;;;7.71;65.43;95638.75;5046911;28;20191;-46
2023/01/25 05:46:35;;;;;;;3.30;2.90;;;;;;;7.62;65.34;95614.69;5053583;28;20671;-47
2023/01/25 05:49:02;;;;;;;2.67;2.47;;;;;;;7.80;65.27;95654.25;5066965;28;20197;-45
2023/01/25 05:51:30;;;;;;;2.47;2.17;;;;;;;8.50;100.00;95648.91;5066858;28;20244;-45
2023/01/25 05:53:57;;;;;;;8.80;2.57;;;;;;;9.65;100.00;95637.69;5066636;28;20251;-45
2023/01/25 05:56:24;;;;;;;6.67;2.00;;;;;;;10.73;100.00;95628.97;5065961;28;20226;-46
2023/01/25 05:58:53;;;;;;;2.00;1.90;;;;;;;11.74;98.01;95642.47;5071241;28;20194;-44
2023/01/25 06:01:21;;;;;;;4.13;2.33;;;;;;;12.51;93.30;95661.97;5073262;28;20261;-46
2023/01/25 06:03:48;;;;;;;3.43;2.30;;;;;;;12.67;90.39;95659.75;5073315;28;20186;-47
2023/01/25 06:06:15;;;;;;;2.80;2.10;;;;;;;12.58;85.90;95662.28;5072849;28;20223;-45
2023/01/25 06:08:44;;;;;;;2.40;2.20;;;;;;;12.37;79.66;95660.53;5073205;28;20196;-48
2023/01/25 06:11:11;;;;;;;3.10;2.73;;;;;;;12.14;76.29;95659.81;5073212;28;20194;-48
2023/01/25 06:13:38;;;;;;;2.43;2.20;;;;;;;11.92;74.88;95667.59;5072697;28;20190;-49
2023/01/25 06:16:06;;;;;;;3.17;2.30;;;;;;;11.71;74.28;95673.44;5072935;28;20221;-48
2023/01/25 06:18:35;;;;;;;2.60;2.40;;;;;;;11.43;73.82;95663.72;5072670;28;20198;-49
2023/01/25 06:21:03;;;;;;;3.17;2.20;;;;;;;11.32;73.31;95674.00;5073223;28;20209;-47
2023/01/25 06:23:30;;;;;;;3.13;2.60;;;;;;;11.11;73.18;95676.44;5072976;28;20197;-47
2023/01/25 06:26:00;;;;;;;4.73;2.40;;;;;;;10.93;72.75;95676.09;5069205;28;20209;-46
2023/01/25 06:28:26;;;;;;;5.50;2.57;;;;;;;10.75;72.82;95670.59;5072619;28;20194;-47
2023/01/25 06:30:53;;;;;;;2.83;2.53;;;;;;;10.54;72.54;95671.28;5071936;28;20679;-48
2023/01/25 06:33:20;;;;;;;2.67;2.47;;;;;;;10.39;72.50;95669.81;5074494;28;20217;-47
2023/01/25 06:35:47;;;;;;;3.00;2.70;;;;;;;9.75;72.70;95585.84;5074874;28;20636;-48
2023/01/25 06:38:14;;;;;;;2.63;2.43;;;;;;;10.10;72.59;95665.97;5075155;28;20198;-46
2023/01/25 06:40:40;;;;;;;2.83;2.40;;;;;;;9.96;72.20;95662.69;5074948;28;20190;-46
2023/01/25 06:43:09;;;;;;;3.00;2.70;;;;;;;9.84;72.42;95666.09;5074979;28;20193;-47
2023/01/25 06:45:36;;;;;;;3.00;2.73;;;;;;;9.72;72.14;95665.25;5074960;28;20281;-47
2023/01/25 06:48:04;;;;;;;3.00;2.70;;;;;;;9.59;72.17;95664.50;5074765;28;20550;-45
2023/01/25 06:50:31;;;;;;;2.80;2.60;;;;;;;9.49;72.03;95668.59;5075045;28;20183;-48
2023/01/25 06:52:57;;;;;;;4.17;2.43;;;;;;;9.22;72.11;95638.13;5074743;28;20194;-46
2023/01/25 06:55:24;;;;;;;3.57;2.93;;;;;;;9.28;71.83;95670.88;5075062;28;20194;-45
2023/01/25 06:57:51;;;;;;;3.67;3.27;;;;;;;9.24;71.83;95667.75;5073826;28;20233;-46
2023/01/25 07:00:20;;;;;;;3.80;3.00;;;;;;;9.18;71.58;95669.91;5074501;28;20222;-48
2023/01/25 07:02:46;;;;;;;3.57;3.03;;;;;;;9.11;71.30;95666.13;5075118;28;20189;-46
2023/01/25 07:05:13;;;;;;;3.50;3.20;;;;;;;9.05;71.37;95669.91;5075379;28;20192;-45
2023/01/25 07:07:40;;;;;;;3.33;2.77;;;;;;;9.00;71.20;95670.22;5075433;28;20193;-46
2023/01/25 07:10:08;;;;;;;3.87;3.03;;;;;;;8.97;71.12;95664.50;5072625;28;20198;-45
2023/01/25 07:12:35;;;;;;;3.90;2.93;;;;;;;8.94;70.86;95672.41;5071595;28;20205;-47
2023/01/25 07:15:02;;;;;;;4.10;3.07;;;;;;;8.85;70.75;95661.06;5072005;28;20244;-45
2023/01/25 07:17:30;;;;;;;4.23;3.37;;;;;;;8.83;70.45;95668.00;5071722;28;20214;-45
2023/01/25 07:19:57;;;;;;;3.47;3.17;;;;;;;8.74;70.37;95666.06;5071849;28;20198;-45
2023/01/25 07:22:24;;;;;;;3.03;2.80;;;;;;;8.75;69.85;95671.06;5071598;28;20194;-44
2023/01/25 07:24:52;;;;;;;4.90;3.10;;;;;;;8.74;69.83;95676.28;5072077;28;20186;-46
2023/01/25 07:27:19;;;;;;;4.10;3.30;;;;;;;8.71;69.73;95677.28;5071583;28;20198;-49
2023/01/25 07:29:46;;;;;;;4.03;3.57;;;;;;;8.69;69.59;95683.41;5071797;28;20179;-45
2023/01/25 07:32:13;;;;;;;3.77;3.37;;;;;;;8.66;69.41;95678.50;5071530;28;20182;-46
2023/01/25 07:34:42;;;;;;;4.43;3.00;;;;;;;8.62;69.46;95684.72;5071841;28;20187;-44
2023/01/25 07:37:09;;;;;;;3.33;3.13;;;;;;;8.57;69.20;95679.94;5071154;28;20692;-46
2023/01/25 07:39:36;;;;;;;4.50;3.37;;;;;;;8.56;69.26;95688.50;5071240;28;20283;-45
2023/01/25 07:42:03;;;;;;;3.60;3.17;;;;;;;8.54;69.04;95691.13;5071159;28;20190;-45
2023/01/25 07:44:29;;;;;;;4.33;3.40;;;;;;;8.56;68.97;95685.97;5071371;28;20183;-46
2023/01/25 07:46:56;;;;;;;3.60;3.30;;;;;;;8.59;68.72;95692.56;5071133;28;20667;-45
2023/01/25 07:49:23;;;;;;;3.50;3.20;;;;;;;8.56;68.53;95685.97;5067467;28;20190;-44
2023/01/25 07:51:51;;;;;;;3.70;3.30;;;;;;;8.59;68.41;95693.38;5069046;28;20198;-44
2023/01/25 07:54:18;;;;;;;3.80;3.40;;;;;;;8.53;68.48;95675.94;5068669;28;20194;-44
2023/01/25 07:56:45;;;;;;;2.83;2.63;;;;;;;8.59;68.00;95690.81;5069637;28;20206;-44
2023/01/25 07:59:13;;;;;;;3.93;3.33;;;;;;;8.60;68.17;95689.13;5069511;28;20190;-46
2023/01/25 08:01:40;;;;;;;3.97;3.40;;;;;;;8.50;68.00;95669.31;5068756;28;20226;-47
2023/01/25 08:04:07;;;;;;;4.10;3.70;;;;;;;8.63;67.96;95686.34;5067589;28;20637;-44
2023/01/25 08:06:37;;;;;;;4.07;3.67;;;;;;;8.64;67.75;95678.63;5066593;28;20195;-46
2023/01/25 08:09:08;;;;;;;4.13;3.33;;;;;;;8.66;67.62;95686.97;5065296;28;20660;-45
2023/01/25 08:11:35;;;;;;;4.10;3.70;;;;;;;8.66;67.42;95684.41;5067382;28;20182;-44
2023/01/25 08:14:02;;;;;;;4.10;3.70;;;;;;;8.66;67.60;95684.41;5068595;28;20201;-46
2023/01/25 08:16:31;;;;;;;4.67;4.03;;;;;;;8.48;67.39;95653.31;5067918;28;20190;-44
2023/01/25 08:19:00;;;;;;;5.07;3.50;;;;;;;8.65;67.19;95685.34;5069955;28;20221;-44
2023/01/25 08:21:29;;;;;;;5.27;4.37;;;;;;;8.66;67.44;95686.16;5067134;28;20199;-44
2023/01/25 08:23:57;;;;;;;4.13;3.73;;;;;;;8.67;67.16;95685.22;5065408;28;20248;-47
2023/01/25 08:26:26;;;;;;;5.10;4.00;;;;;;;8.67;67.07;95680.13;5068026;28;20191;-46
2023/01/25 08:28:53;;;;;;;5.40;4.27;;;;;;;8.66;67.07;95679.31;5072438;28;20289;-50
2023/01/25 08:31:22;;;;;;;4.97;4.27;;;;;;;8.56;67.20;95665.56;5068621;28;20294;-46
2023/01/25 08:33:50;;;;;;;4.80;4.30;;;;;;;8.68;66.81;95669.84;5067292;28;20218;-47
2023/01/25 08:36:18;;;;;;;5.20;4.53;;;;;;;8.69;66.76;95671.47;5067554;28;20226;-47
2023/01/25 08:38:45;;;;;;;5.50;4.60;;;;;;;8.72;66.69;95678.94;5068946;28;20229;-44
2023/01/25 08:41:14;;;;;;;5.00;4.47;;;;;;;8.75;66.64;95680.44;5069666;28;20195;-45
2023/01/25 08:43:43;;;;;;;6.43;4.97;;;;;;;8.76;66.58;95682.06;5067039;28;20661;-46
2023/01/25 08:46:10;;;;;;;6.27;4.67;;;;;;;8.63;66.66;95651.47;5066792;28;20190;-48
2023/01/25 08:48:37;;;;;;;6.60;5.20;;;;;;;8.77;66.50;95676.06;5066382;28;20202;-47
2023/01/25 08:51:05;;;;;;;5.80;5.03;;;;;;;8.78;66.34;95670.03;5063126;28;20251;-46
2023/01/25 08:53:32;;;;;;;7.13;5.53;;;;;;;8.73;66.36;95667.81;5067923;28;20209;-45
2023/01/25 08:56:03;;;;;;;5.80;5.20;;;;;;;8.76;66.24;95662.50;5068929;28;20209;-48
2023/01/25 08:58:30;;;;;;;7.27;5.53;;;;;;;8.84;66.22;95679.00;5068263;28;20256;-45
2023/01/25 09:01:03;;;;;;;7.93;5.63;;;;;;;8.83;66.07;95667.19;5066417;28;20614;-46
2023/01/25 09:03:30;;;;;;;6.97;5.20;;;;;;;8.88;65.95;95672.78;5066258;28;20376;-45
2023/01/25 09:05:57;;;;;;;6.20;5.60;;;;;;;8.87;66.14;95666.88;5067017;28;20186;-45
2023/01/25 09:08:24;;;;;;;7.20;5.33;;;;;;;8.88;65.99;95672.78;5066112;28;20206;-48
2023/01/25 09:10:50;;;;;;;5.70;4.63;;;;;;;8.74;65.75;95648.22;5069000;28;20191;-47
2023/01/25 09:13:17;;;;;;;6.97;5.13;;;;;;;8.80;65.88;95647.78;5068205;28;20194;-46
2023/01/25 09:15:44;;;;;;;6.17;5.57;;;;;;;8.93;65.95;95666.44;5068227;28;20210;-46
2023/01/25 09:18:13;;;;;;;8.63;4.77;;;;;;;8.94;65.94;95662.19;5067033;28;20314;-46
2023/01/25 09:20:40;;;;;;;6.90;5.80;;;;;;;8.95;65.63;95658.72;5067696;28;20255;-48
2023/01/25 09:23:07;;;;;;;9.43;5.57;;;;;;;8.96;65.68;95663.69;5068653;28;20213;-48
2023/01/25 09:25:34;;;;;;;6.30;4.97;;;;;;;8.99;65.69;95662.69;5063605;28;20217;-47
2023/01/25 09:28:09;;;;;;;6.73;5.53;;;;;;;9.01;65.63;95648.06;5066173;28;20232;-47
2023/01/25 09:30:37;;;;;;;6.40;5.80;;;;;;;8.92;65.61;95636.75;5068289;28;20278;-46
2023/01/25 09:33:04;;;;;;;8.50;6.10;;;;;;;9.03;65.58;95648.81;5066764;28;20198;-47
2023/01/25 09:35:33;;;;;;;6.60;5.90;;;;;;;9.05;65.69;95644.41;5066606;28;20205;-46
2023/01/25 09:37:59;;;;;;;6.90;5.30;;;;;;;9.09;65.55;95637.34;5065731;28;20780;-48
2023/01/25 09:40:33;;;;;;;6.00;5.17;;;;;;;9.14;65.56;95632.75;5067923;28;20667;-46
2023/01/25 09:43:05;;;;;;;8.13;5.73;;;;;;;9.19;65.06;95625.59;5062532;28;20202;-47
2023/01/25 09:45:33;;;;;;;6.33;5.20;;;;;;;9.25;65.33;95620.06;5065985;28;20260;-47
2023/01/25 09:48:10;;;;;;;8.47;5.47;;;;;;;9.30;64.93;95616.28;5060205;28;20187;-45
2023/01/25 09:50:59;;;;;;;6.33;5.53;;;;;;;9.35;65.01;95605.72;5066546;28;20676;-48
2023/01/25 09:53:32;;;;;;;8.23;5.50;;;;;;;9.38;64.76;95610.63;5067675;28;20706;-47
2023/01/25 09:56:03;;;;;;;7.33;5.67;;;;;;;9.41;64.91;95604.47;5065284;28;20201;-46
2023/01/25 09:58:34;;;;;;;5.33;4.83;;;;;;;9.43;64.76;95603.47;5064925;28;20276;-46
2023/01/25 10:01:22;;;;;;;6.00;5.27;;;;;;;9.45;64.90;95598.22;5065811;28;20235;-46
2023/01/25 10:03:55;;;;;;;6.83;4.90;;;;;;;9.48;64.69;95592.91;5064745;28;20195;-48
2023/01/25 10:06:28;;;;;;;7.67;5.07;;;;;;;9.47;64.70;95594.66;5066283;28;20670;-48
2023/01/25 10:09:02;;;;;;;7.00;5.40;;;;;;;9.54;64.59;95590.75;5065837;28;20186;-48
2023/01/25 10:11:31;;;;;;;5.10;4.60;;;;;;;9.32;64.56;95542.13;5063762;28;20201;-45
2023/01/25 10:13:59;;;;;;;5.70;5.10;;;;;;;9.60;64.42;95576.72;5065367;28;20671;-48
2023/01/25 10:16:32;;;;;;;5.33;4.83;;;;;;;9.59;64.33;95567.44;5064839;28;20204;-47
2023/01/25 10:19:10;;;;;;;5.50;4.83;;;;;;;9.71;64.34;95574.19;5061711;28;20628;-47
2023/01/25 10:21:43;;;;;;;5.40;4.90;;;;;;;9.68;64.19;95556.56;5065524;28;20189;-46
2023/01/25 10:24:31;;;;;;;5.20;4.70;;;;;;;9.80;64.24;95558.25;5063796;28;20698;-48
2023/01/25 10:27:02;;;;;;;5.37;4.53;;;;;;;9.89;63.98;95556.75;5064865;28;20186;-47
2023/01/25 10:29:33;;;;;;;5.40;4.90;;;;;;;9.69;63.77;95516.50;5063632;28;20202;-48
2023/01/25 10:32:11;;;;;;;5.80;5.20;;;;;;;10.02;63.57;95556.66;5060110;28;20260;-47
2023/01/25 10:34:43;;;;;;;4.77;4.30;;;;;;;10.10;63.51;95556.88;5064374;28;20198;-47
2023/01/25 10:37:14;;;;;;;5.13;4.00;;;;;;;10.03;63.38;95531.00;5063491;28;20256;-47
2023/01/25 10:39:47;;;;;;;5.37;4.10;;;;;;;10.21;63.10;95551.00;5061937;28;20668;-46
2023/01/25 10:42:16;;;;;;;4.67;4.27;;;;;;;10.22;63.03;95544.94;5063658;28;20277;-48
2023/01/25 10:44:42;;;;;;;4.77;4.30;;;;;;;10.25;63.08;95545.56;5062537;28;20574;-47
2023/01/25 10:47:18;;;;;;;6.40;4.73;;;;;;;10.28;62.84;95534.31;5067679;28;20289;-47
2023/01/25 10:49:48;;;;;;;4.67;4.10;;;;;;;10.12;62.72;95510.78;5067458;28;20668;-47
2023/01/25 10:52:18;;;;;;;5.00;4.30;;;;;;;10.29;62.83;95526.53;5066325;28;20198;-46
2023/01/25 10:54:45;;;;;;;5.23;4.73;;;;;;;10.34;62.85;95528.72;5069374;28;20632;-45
2023/01/25 10:57:17;;;;;;;5.20;4.40;;;;;;;10.38;62.45;95529.31;5068683;28;20189;-47
2023/01/25 10:59:46;;;;;;;4.87;4.30;;;;;;;10.43;62.43;95522.09;5069357;28;20876;-46
2023/01/25 11:02:38;;;;;;;5.00;4.50;;;;;;;10.51;62.41;95522.34;5070867;28;20688;-45
2023/01/25 11:05:28;;;;;;;6.27;4.37;;;;;;;10.55;62.37;95509.19;5071370;28;20207;-45
2023/01/25 11:07:57;;;;;;;4.60;4.17;;;;;;;10.42;61.91;95475.28;5011377;28;20210;-47
2023/01/25 11:10:30;;;;;;;6.07;4.03;;;;;;;10.73;61.85;95511.28;5013828;28;20212;-45
2023/01/25 11:13:19;;;;;;;6.47;4.33;;;;;;;10.81;61.67;95508.94;5016026;28;21033;-46
2023/01/25 11:15:49;;;;;;;4.53;4.13;;;;;;;10.88;61.31;95499.88;5012137;28;20302;-47
2023/01/25 11:18:20;;;;;;;4.20;3.80;;;;;;;10.85;61.10;95482.19;5011090;28;20721;-46
2023/01/25 11:20:47;;;;;;;4.67;4.27;;;;;;;10.99;60.98;95491.34;5010853;28;20561;-46
2023/01/25 11:23:25;;;;;;;4.53;3.93;;;;;;;11.02;61.20;95489.34;5016944;28;20627;-46
2023/01/25 11:25:53;;;;;;;4.07;3.70;;;;;;;11.04;60.86;95489.22;5021716;28;20276;-45
2023/01/25 11:28:22;;;;;;;4.20;3.80;;;;;;;11.09;60.88;95489.66;5011193;28;20228;-46
2023/01/25 11:30:50;;;;;;;4.67;3.90;;;;;;;11.10;60.66;95485.38;5016585;28;20183;-47
2023/01/25 11:33:20;;;;;;;4.30;3.90;;;;;;;11.08;60.54;95482.94;5009152;28;20192;-47
2023/01/25 11:36:09;;;;;;;8.47;4.17;;;;;;;11.11;60.73;95477.56;5012688;28;20207;-48
2023/01/25 11:38:44;;;;;;;4.20;3.87;;;;;;;11.11;60.44;95481.88;5016626;28;20219;-46
2023/01/25 11:41:21;;;;;;;4.37;3.93;;;;;;;11.06;60.38;95469.47;5014790;28;20192;-48
2023/01/25 11:44:05;;;;;;;4.77;4.27;;;;;;;11.07;60.42;95463.41;5016717;28;20226;-48
2023/01/25 11:46:47;;;;;;;4.30;3.90;;;;;;;10.90;60.51;95428.91;5069559;28;20209;-45
2023/01/25 11:49:27;;;;;;;6.40;4.60;;;;;;;11.10;60.12;95454.66;5068972;28;20679;-47